createdAt,value
2018-12-12T00:00:56.983Z,54.77
2018-12-12T00:03:24.691Z,99.13
2018-12-12T00:05:52.319Z,48.83
2018-12-12T00:08:19.905Z,34.17
2018-12-12T00:10:47.472Z,28.60
2018-12-12T00:13:15.014Z,28.53
2018-12-12T00:15:42.797Z,23.03
2018-12-12T00:18:10.810Z,20.17
2018-12-12T00:20:38.348Z,20.90
2018-12-12T00:23:06.183Z,21.30
2018-12-12T00:25:33.719Z,24.27
2018-12-12T00:28:01.342Z,21.40
2018-12-12T00:30:28.953Z,22.43
2018-12-12T00:32:57.329Z,20.47
2018-12-12T00:35:25.756Z,17.27
2018-12-12T00:37:54.029Z,29.10
2018-12-12T00:40:21.823Z,19.03
2018-12-12T00:42:49.749Z,19.20
2018-12-12T00:45:17.571Z,15.03
2018-12-12T00:47:45.377Z,14.43
2018-12-12T00:50:12.920Z,14.67
2018-12-12T00:52:40.763Z,17.07
2018-12-12T00:55:08.611Z,18.60
2018-12-12T00:57:36.735Z,21.80
2018-12-12T01:00:05.982Z,18.90
2018-12-12T01:02:33.992Z,16.87
2018-12-12T01:05:01.539Z,14.10
2018-12-12T01:07:29.398Z,26.43
2018-12-12T01:09:57.935Z,16.73
2018-12-12T01:12:25.470Z,14.53
2018-12-12T01:14:53.243Z,14.47
2018-12-12T01:17:20.977Z,14.93
2018-12-12T01:19:48.683Z,14.30
2018-12-12T01:22:16.740Z,18.07
2018-12-12T01:24:44.282Z,13.33
2018-12-12T01:27:12.053Z,14.53
2018-12-12T01:29:39.708Z,15.97
2018-12-12T01:32:07.454Z,28.27
2018-12-12T01:34:35.491Z,17.10
2018-12-12T01:37:03.318Z,13.40
2018-12-12T01:39:31.386Z,16.00
2018-12-12T01:41:58.918Z,15.73
2018-12-12T01:44:26.762Z,19.23
2018-12-12T01:46:54.345Z,16.23
2018-12-12T01:49:21.874Z,16.50
2018-12-12T01:51:49.443Z,20.77
2018-12-12T01:54:16.980Z,19.27
2018-12-12T01:56:44.514Z,16.30
2018-12-12T01:59:12.328Z,15.57
2018-12-12T02:01:40.029Z,15.57
2018-12-12T02:04:07.761Z,15.17
2018-12-12T02:06:35.758Z,18.20
2018-12-12T02:09:04.645Z,18.57
2018-12-12T02:11:32.337Z,20.77
2018-12-12T02:14:00.318Z,18.83
2018-12-12T02:16:27.974Z,19.50
2018-12-12T02:18:55.654Z,21.07
2018-12-12T02:21:23.707Z,16.60
2018-12-12T02:23:51.301Z,17.83
2018-12-12T02:26:18.834Z,15.93
2018-12-12T02:28:46.681Z,15.37
2018-12-12T02:31:14.215Z,14.33
2018-12-12T02:33:41.977Z,16.27
2018-12-12T02:36:09.742Z,24.90
2018-12-12T02:38:37.466Z,16.23
2018-12-12T02:41:05.128Z,14.60
2018-12-12T02:43:32.854Z,10.93
2018-12-12T02:46:00.407Z,12.40
2018-12-12T02:48:28.110Z,12.53
2018-12-12T02:50:56.061Z,13.10
2018-12-12T02:53:23.596Z,15.50
2018-12-12T02:55:51.323Z,13.80
2018-12-12T02:58:19.031Z,12.63
2018-12-12T03:00:46.853Z,14.00
2018-12-12T03:03:14.390Z,12.80
2018-12-12T03:05:41.951Z,12.50
2018-12-12T03:08:09.631Z,12.23
2018-12-12T03:10:37.163Z,12.70
2018-12-12T03:13:04.850Z,14.23
2018-12-12T03:15:32.634Z,14.33
2018-12-12T03:18:00.168Z,11.13
2018-12-12T03:20:27.902Z,9.73
2018-12-12T03:22:55.774Z,10.77
2018-12-12T03:25:23.431Z,13.80
2018-12-12T03:27:51.183Z,21.37
2018-12-12T03:30:18.714Z,27.20
2018-12-12T03:32:46.257Z,20.30
2018-12-12T03:35:14.268Z,16.80
2018-12-12T03:37:41.938Z,13.53
2018-12-12T03:40:09.977Z,12.97
2018-12-12T03:42:38.048Z,11.40
2018-12-12T03:45:05.769Z,11.97
2018-12-12T03:47:33.468Z,14.00
2018-12-12T03:50:01.051Z,16.97
2018-12-12T03:52:28.956Z,14.73
2018-12-12T03:54:56.794Z,24.57
2018-12-12T03:57:24.612Z,15.17
2018-12-12T03:59:52.573Z,13.30
2018-12-12T04:02:20.447Z,16.40
2018-12-12T04:04:48.009Z,16.17
2018-12-12T04:07:15.724Z,16.00
2018-12-12T04:09:43.698Z,19.27
2018-12-12T04:12:11.279Z,20.83
2018-12-12T04:14:39.133Z,20.57
2018-12-12T04:17:06.670Z,21.07
2018-12-12T04:19:34.510Z,22.00
2018-12-12T04:22:02.455Z,18.30
2018-12-12T04:24:31.280Z,21.13
2018-12-12T04:26:59.113Z,23.73
2018-12-12T04:29:27.580Z,22.07
2018-12-12T04:31:55.125Z,27.33
2018-12-12T04:34:24.080Z,33.00
2018-12-12T04:36:52.103Z,34.93
2018-12-12T04:39:19.639Z,33.20
2018-12-12T04:41:47.203Z,31.97
2018-12-12T04:44:14.744Z,29.90
2018-12-12T04:46:42.286Z,21.47
2018-12-12T04:49:09.885Z,21.27
2018-12-12T04:51:37.414Z,25.73
2018-12-12T04:54:04.979Z,21.83
2018-12-12T04:56:32.546Z,23.77
2018-12-12T04:59:00.379Z,24.63
2018-12-12T05:01:29.043Z,24.70
2018-12-12T05:03:56.611Z,22.40
2018-12-12T05:06:24.137Z,24.00
2018-12-12T05:08:51.671Z,25.97
2018-12-12T05:11:19.242Z,25.40
2018-12-12T05:13:46.778Z,27.93
2018-12-12T05:16:14.321Z,30.80
2018-12-12T05:18:41.926Z,29.77
2018-12-12T05:21:09.861Z,30.37
2018-12-12T05:23:37.399Z,30.33
2018-12-12T05:26:05.222Z,34.67
2018-12-12T05:28:32.822Z,41.20
2018-12-12T05:31:00.642Z,35.50
2018-12-12T05:33:28.547Z,32.80
2018-12-12T05:35:56.083Z,41.40
2018-12-12T05:38:23.723Z,34.97
2018-12-12T05:40:51.396Z,36.77
2018-12-12T05:43:18.932Z,43.17
2018-12-12T05:45:46.777Z,42.43
2018-12-12T05:48:14.458Z,43.37
2018-12-12T05:50:41.997Z,48.80
2018-12-12T05:53:09.822Z,29.37
2018-12-12T05:55:37.723Z,32.33
2018-12-12T05:58:05.590Z,31.37
2018-12-12T06:00:33.238Z,29.87
2018-12-12T06:03:01.117Z,37.63
2018-12-12T06:05:28.811Z,37.33
2018-12-12T06:07:56.459Z,35.17
2018-12-12T06:10:24.034Z,38.40
2018-12-12T06:12:51.563Z,35.93
2018-12-12T06:15:19.097Z,34.30
2018-12-12T06:17:46.746Z,33.87
2018-12-12T06:20:14.274Z,34.50
2018-12-12T06:22:42.113Z,33.13
2018-12-12T06:25:09.687Z,35.07
2018-12-12T06:27:37.526Z,32.77
2018-12-12T06:30:07.069Z,33.23
2018-12-12T06:32:35.692Z,34.57
2018-12-12T06:35:04.714Z,35.03
2018-12-12T06:37:32.248Z,34.67
2018-12-12T06:40:00.122Z,27.37
2018-12-12T06:42:27.660Z,25.73
2018-12-12T06:44:55.336Z,25.73
2018-12-12T06:47:22.909Z,26.17
2018-12-12T06:49:50.446Z,31.13
2018-12-12T06:52:18.247Z,35.33
2018-12-12T06:54:45.815Z,33.70
2018-12-12T06:57:13.350Z,39.43
2018-12-12T06:59:40.886Z,38.60
2018-12-12T07:02:09.428Z,27.80
2018-12-12T07:04:37.482Z,32.47
2018-12-12T07:07:06.136Z,27.53
2018-12-12T07:09:33.764Z,30.00
2018-12-12T07:12:01.298Z,29.10
2018-12-12T07:14:28.835Z,30.93
2018-12-12T07:16:56.674Z,45.05
2018-12-12T07:19:24.211Z,31.80
2018-12-12T07:21:51.968Z,32.60
2018-12-12T07:24:19.569Z,25.83
2018-12-12T07:26:47.124Z,31.50
2018-12-12T07:29:14.796Z,30.80
2018-12-12T07:31:42.390Z,32.97
2018-12-12T07:34:10.296Z,26.00
2018-12-12T07:36:37.829Z,23.10
2018-12-12T07:39:07.610Z,22.17
2018-12-12T07:41:35.594Z,21.20
2018-12-12T07:44:03.332Z,19.30
2018-12-12T07:46:31.219Z,24.70
2018-12-12T07:49:00.049Z,29.37
2018-12-12T07:51:27.843Z,31.67
2018-12-12T07:53:55.735Z,31.23
2018-12-12T07:56:23.385Z,28.23
2018-12-12T07:58:51.133Z,22.53
2018-12-12T08:01:18.809Z,20.73
2018-12-12T08:03:46.345Z,20.50
2018-12-12T08:06:13.964Z,20.47
2018-12-12T08:08:41.845Z,21.23
2018-12-12T08:11:09.373Z,20.07
2018-12-12T08:13:37.017Z,21.47
2018-12-12T08:16:05.008Z,21.57
2018-12-12T08:18:32.558Z,19.90
2018-12-12T08:21:00.341Z,23.17
2018-12-12T08:23:28.625Z,26.00
2018-12-12T08:25:56.175Z,25.37
2018-12-12T08:28:23.715Z,24.50
2018-12-12T08:30:51.671Z,27.97
2018-12-12T08:33:19.211Z,32.93
2018-12-12T08:35:47.138Z,34.70
2018-12-12T08:38:14.706Z,35.90
2018-12-12T08:40:42.237Z,31.23
2018-12-12T08:43:09.940Z,26.43
2018-12-12T08:45:37.555Z,18.70
2018-12-12T08:48:05.162Z,18.53
2018-12-12T08:50:32.760Z,17.70
2018-12-12T08:53:00.330Z,18.20
2018-12-12T08:55:27.870Z,18.20
2018-12-12T08:57:55.402Z,17.37
2018-12-12T09:00:23.136Z,16.67
2018-12-12T09:02:50.681Z,18.27
2018-12-12T09:05:18.221Z,20.53
2018-12-12T09:07:46.238Z,16.93
2018-12-12T09:10:13.946Z,15.60
2018-12-12T09:12:41.474Z,21.10
2018-12-12T09:15:09.682Z,22.13
2018-12-12T09:17:37.255Z,20.63
2018-12-12T09:20:05.557Z,33.23
2018-12-12T09:22:33.127Z,20.53
2018-12-12T09:25:00.663Z,16.50
2018-12-12T09:27:28.197Z,20.00
2018-12-12T09:29:55.778Z,16.43
2018-12-12T09:32:23.553Z,17.47
2018-12-12T09:34:51.175Z,16.50
2018-12-12T09:37:18.778Z,19.80
2018-12-12T09:39:46.313Z,18.00
2018-12-12T09:42:13.850Z,19.80
2018-12-12T09:44:41.462Z,20.50
2018-12-12T09:47:09.710Z,24.07
2018-12-12T09:49:37.778Z,26.40
2018-12-12T09:52:05.706Z,25.37
2018-12-12T09:54:33.255Z,22.27
2018-12-12T09:57:00.962Z,20.83
2018-12-12T09:59:28.895Z,23.00
2018-12-12T10:01:56.439Z,23.70
2018-12-12T10:04:23.971Z,23.33
2018-12-12T10:06:51.934Z,26.62
2018-12-12T10:09:19.647Z,24.97
2018-12-12T10:11:47.366Z,27.67
2018-12-12T10:14:15.206Z,21.77
2018-12-12T10:16:43.022Z,26.37
2018-12-12T10:19:10.569Z,27.00
2018-12-12T10:21:38.143Z,26.23
2018-12-12T10:24:05.748Z,22.37
2018-12-12T10:26:33.425Z,23.40
2018-12-12T10:29:01.206Z,29.60
2018-12-12T10:31:29.009Z,27.40
2018-12-12T10:33:57.330Z,28.87
2018-12-12T10:36:25.032Z,28.90
2018-12-12T10:38:52.578Z,79.07
2018-12-12T10:41:20.119Z,44.20
2018-12-12T10:43:47.690Z,38.90
2018-12-12T10:46:15.383Z,33.07
2018-12-12T10:48:43.140Z,33.80
2018-12-12T10:51:10.825Z,26.27
2018-12-12T10:53:38.370Z,24.03
2018-12-12T10:56:05.902Z,24.17
2018-12-12T10:58:33.490Z,20.93
2018-12-12T11:04:04.549Z,30.87
2018-12-12T11:06:32.086Z,33.93
2018-12-12T11:08:59.617Z,32.67
2018-12-12T11:11:27.340Z,30.80
2018-12-12T11:13:54.881Z,33.60
2018-12-12T11:16:22.415Z,32.13
2018-12-12T11:18:49.990Z,36.00
2018-12-12T11:21:17.535Z,51.77
2018-12-12T11:23:45.072Z,38.33
2018-12-12T11:26:12.633Z,38.97
2018-12-12T11:28:40.486Z,36.77
2018-12-12T11:31:08.031Z,37.20
2018-12-12T11:33:35.566Z,37.33
2018-12-12T11:36:03.151Z,32.60
2018-12-12T11:38:30.948Z,29.00
2018-12-12T11:40:58.485Z,30.17
2018-12-12T11:43:26.056Z,33.53
2018-12-12T11:45:54.102Z,40.00
2018-12-12T11:48:21.959Z,31.80
2018-12-12T11:50:49.526Z,31.30
2018-12-12T11:53:17.286Z,31.35
2018-12-12T11:55:45.100Z,41.63
2018-12-12T11:58:12.841Z,26.70
2018-12-12T12:00:40.642Z,26.70
2018-12-12T12:03:08.181Z,21.63
2018-12-12T12:05:35.994Z,19.47
2018-12-12T12:08:03.539Z,18.40
2018-12-12T12:10:31.091Z,168.90
2018-12-12T12:12:58.662Z,262.77
2018-12-12T12:15:26.383Z,73.93
2018-12-12T12:17:54.042Z,54.73
2018-12-12T12:20:21.979Z,54.30
2018-12-12T12:22:49.521Z,43.03
2018-12-12T12:25:17.360Z,40.73
2018-12-12T12:27:45.060Z,37.45
2018-12-12T12:30:13.222Z,32.00
2018-12-12T12:32:40.769Z,29.90
2018-12-12T12:35:08.403Z,27.40
2018-12-12T12:37:35.998Z,35.13
2018-12-12T12:40:05.820Z,29.00
2018-12-12T12:42:36.472Z,57.23
2018-12-12T12:45:05.043Z,44.37
2018-12-12T12:47:32.821Z,39.63
2018-12-12T12:50:00.612Z,39.37
2018-12-12T12:52:28.511Z,35.50
2018-12-12T12:54:56.356Z,28.40
2018-12-12T12:57:24.498Z,25.10
2018-12-12T12:59:52.039Z,24.40
2018-12-12T13:02:19.577Z,23.97
2018-12-12T13:04:47.159Z,21.93
2018-12-12T13:07:14.714Z,23.40
2018-12-12T13:09:42.258Z,24.20
2018-12-12T13:12:09.953Z,24.13
2018-12-12T13:14:38.049Z,24.13
2018-12-12T13:17:06.719Z,32.53
2018-12-12T13:19:34.292Z,24.10
2018-12-12T13:22:02.858Z,23.03
2018-12-12T13:24:30.718Z,21.53
2018-12-12T13:26:58.299Z,26.07
2018-12-12T13:29:25.991Z,24.97
2018-12-12T13:31:54.918Z,26.33
2018-12-12T13:34:22.839Z,27.00
2018-12-12T13:36:50.375Z,39.37
2018-12-12T13:39:19.161Z,53.13
2018-12-12T13:41:46.739Z,61.07
2018-12-12T13:44:14.279Z,41.30
2018-12-12T13:46:41.825Z,46.67
2018-12-12T13:49:09.671Z,41.73
2018-12-12T13:51:37.216Z,41.43
2018-12-12T13:54:04.764Z,40.27
2018-12-12T13:56:32.591Z,42.60
2018-12-12T13:59:00.135Z,42.50
2018-12-12T14:01:27.679Z,49.17
2018-12-12T14:03:55.255Z,40.97
2018-12-12T14:06:22.805Z,36.23
2018-12-12T14:08:50.521Z,35.43
2018-12-12T14:11:18.115Z,37.37
2018-12-12T14:13:45.698Z,37.83
2018-12-12T14:16:13.949Z,50.70
2018-12-12T14:18:41.938Z,37.67
2018-12-12T14:21:09.706Z,31.57
2018-12-12T14:23:37.360Z,36.33
2018-12-12T14:26:06.027Z,43.17
2018-12-12T14:28:34.016Z,41.00
2018-12-12T14:31:01.886Z,51.43
2018-12-12T14:33:29.579Z,47.87
2018-12-12T14:36:01.041Z,59.67
2018-12-12T14:38:26.785Z,65.43
2018-12-12T14:40:54.378Z,55.90
2018-12-12T14:43:21.922Z,47.37
2018-12-12T14:45:49.502Z,57.67
2018-12-12T14:48:17.082Z,53.43
2018-12-12T14:50:44.624Z,50.77
2018-12-12T14:53:12.300Z,53.13
2018-12-12T14:55:40.329Z,53.20
2018-12-12T14:58:08.395Z,49.90
2018-12-12T15:00:35.953Z,48.30
2018-12-12T15:03:03.551Z,41.70
2018-12-12T15:05:31.082Z,42.83
2018-12-12T15:07:58.613Z,40.50
2018-12-12T15:10:26.304Z,42.87
2018-12-12T15:12:53.841Z,48.53
2018-12-12T15:15:21.380Z,39.20
2018-12-12T15:17:48.946Z,57.80
2018-12-12T15:20:16.491Z,83.20
2018-12-12T15:22:44.022Z,80.43
2018-12-12T15:25:11.669Z,91.27
2018-12-12T15:27:39.334Z,60.67
2018-12-12T15:30:07.171Z,108.97
2018-12-12T15:32:34.756Z,70.57
2018-12-12T15:35:02.494Z,105.13
2018-12-12T15:37:30.031Z,79.17
2018-12-12T15:39:57.659Z,89.30
2018-12-12T15:42:25.197Z,78.20
2018-12-12T15:44:52.913Z,46.93
2018-12-12T15:47:20.722Z,43.30
2018-12-12T15:49:48.275Z,41.93
2018-12-12T15:52:15.855Z,46.90
2018-12-12T15:54:43.781Z,43.30
2018-12-12T15:57:11.629Z,42.03
2018-12-12T15:59:39.173Z,44.67
2018-12-12T16:02:06.771Z,46.27
2018-12-12T16:04:34.339Z,55.30
2018-12-12T16:07:01.891Z,48.00
2018-12-12T16:09:29.530Z,42.80
2018-12-12T16:11:57.173Z,43.97
2018-12-12T16:14:25.598Z,42.20
2018-12-12T16:16:53.222Z,47.57
2018-12-12T16:19:20.898Z,52.37
2018-12-12T16:21:48.464Z,55.70
2018-12-12T16:24:16.536Z,49.53
2018-12-12T16:26:44.096Z,72.27
2018-12-12T16:29:11.701Z,66.70
2018-12-12T16:31:39.403Z,75.73
2018-12-12T16:34:06.952Z,73.27
2018-12-12T16:36:34.829Z,74.97
2018-12-12T16:39:02.906Z,71.73
2018-12-12T16:41:30.476Z,74.37
2018-12-12T16:43:59.040Z,64.20
2018-12-12T16:46:26.606Z,63.20
2018-12-12T16:48:54.184Z,60.20
2018-12-12T16:51:21.786Z,59.03
2018-12-12T16:53:49.330Z,53.17
2018-12-12T16:56:16.892Z,50.93
2018-12-12T16:58:44.627Z,47.07
2018-12-12T17:01:12.553Z,48.47
2018-12-12T17:03:41.145Z,63.43
2018-12-12T17:06:09.027Z,77.37
2018-12-12T17:08:36.578Z,74.40
2018-12-12T17:11:04.131Z,113.37
2018-12-12T17:13:32.246Z,81.93
2018-12-12T17:15:59.794Z,83.67
2018-12-12T17:18:27.520Z,95.67
2018-12-12T17:20:55.114Z,94.97
2018-12-12T17:23:22.678Z,89.07
2018-12-12T17:25:50.301Z,84.47
2018-12-12T17:28:18.367Z,73.27
2018-12-12T17:30:46.454Z,66.73
2018-12-12T17:33:15.335Z,51.97
2018-12-12T17:35:42.963Z,49.93
2018-12-12T17:38:10.979Z,45.03
2018-12-12T17:40:38.608Z,42.60
2018-12-12T17:43:06.776Z,43.90
2018-12-12T17:45:34.486Z,48.03
2018-12-12T17:48:02.027Z,59.03
2018-12-12T17:50:29.624Z,62.60
2018-12-12T17:52:57.182Z,58.00
2018-12-12T17:55:25.091Z,58.47
2018-12-12T17:57:52.676Z,73.40
2018-12-12T18:00:20.338Z,67.10
2018-12-12T18:02:53.936Z,88.77
2018-12-12T18:05:21.488Z,84.97
2018-12-12T18:07:49.042Z,65.10
2018-12-12T18:10:17.203Z,91.70
2018-12-12T18:12:44.759Z,139.43
2018-12-12T18:15:12.502Z,152.50
2018-12-12T18:17:40.559Z,128.53
2018-12-12T18:20:08.121Z,130.60
2018-12-12T18:22:35.684Z,135.13
2018-12-12T18:25:03.304Z,137.97
2018-12-12T18:27:30.884Z,126.17
2018-12-12T18:29:59.217Z,87.07
2018-12-12T18:32:27.247Z,78.43
2018-12-12T18:34:54.963Z,77.33
2018-12-12T18:37:22.517Z,63.87
2018-12-12T18:39:51.565Z,62.00
2018-12-12T18:42:19.655Z,66.93
2018-12-12T18:44:47.657Z,99.50
2018-12-12T18:47:17.572Z,169.37
2018-12-12T18:49:45.656Z,171.80
2018-12-12T18:52:13.575Z,176.30
2018-12-12T18:54:41.197Z,175.87
2018-12-12T18:57:09.471Z,173.83
2018-12-12T18:59:37.023Z,164.67
2018-12-12T19:02:05.050Z,155.87
2018-12-12T19:04:32.619Z,146.73
2018-12-12T19:07:00.164Z,141.23
2018-12-12T19:09:28.430Z,120.00
2018-12-12T19:11:56.010Z,131.13
2018-12-12T19:14:24.161Z,129.40
2018-12-12T19:16:51.824Z,129.30
2018-12-12T19:19:19.687Z,111.03
2018-12-12T19:21:47.767Z,102.43
2018-12-12T19:24:15.517Z,82.07
2018-12-12T19:26:43.486Z,73.37
2018-12-12T19:29:11.265Z,74.87
2018-12-12T19:31:39.020Z,72.77
2018-12-12T19:34:06.626Z,67.10
2018-12-12T19:36:34.335Z,98.03
2018-12-12T19:39:02.563Z,68.67
2018-12-12T19:41:32.478Z,65.77
2018-12-12T19:44:00.763Z,66.37
2018-12-12T19:46:29.007Z,69.90
2018-12-12T19:48:56.858Z,100.07
2018-12-12T19:51:24.408Z,111.13
2018-12-12T19:53:52.022Z,133.20
2018-12-12T19:56:21.003Z,124.10
2018-12-12T19:58:48.568Z,101.73
2018-12-12T20:01:16.155Z,106.70
2018-12-12T20:03:44.336Z,100.87
2018-12-12T20:06:12.120Z,58.67
2018-12-12T20:08:39.721Z,99.80
2018-12-12T20:11:07.746Z,79.63
2018-12-12T20:13:35.320Z,54.90
2018-12-12T20:16:03.457Z,54.73
2018-12-12T20:18:31.231Z,54.90
2018-12-12T20:20:58.791Z,55.13
2018-12-12T20:23:26.375Z,49.53
2018-12-12T20:25:53.919Z,46.30
2018-12-12T20:28:21.479Z,52.57
2018-12-12T20:30:49.533Z,88.23
2018-12-12T20:33:17.295Z,70.07
2018-12-12T20:35:48.015Z,80.77
2018-12-12T20:38:15.636Z,110.33
2018-12-12T20:40:43.345Z,92.20
2018-12-12T20:43:10.930Z,98.73
2018-12-12T20:45:39.484Z,91.67
2018-12-12T20:48:07.762Z,122.27
2018-12-12T20:50:38.556Z,62.70
2018-12-12T20:53:06.262Z,58.47
2018-12-12T20:55:33.939Z,56.47
2018-12-12T20:58:01.530Z,64.87
2018-12-12T21:00:29.157Z,61.57
2018-12-12T21:02:56.907Z,62.27
2018-12-12T21:05:25.280Z,58.77
2018-12-12T21:07:53.874Z,56.47
2018-12-12T21:10:21.545Z,54.20
2018-12-12T21:12:49.087Z,53.37
2018-12-12T21:15:16.717Z,48.87
2018-12-12T21:17:45.262Z,44.60
2018-12-12T21:20:12.849Z,44.97
2018-12-12T21:22:40.626Z,54.87
2018-12-12T21:25:08.187Z,61.47
2018-12-12T21:27:36.064Z,53.33
2018-12-12T21:30:03.931Z,56.63
2018-12-12T21:32:31.591Z,48.83
2018-12-12T21:34:59.677Z,44.43
2018-12-12T21:37:27.281Z,46.50
2018-12-12T21:39:55.333Z,45.40
2018-12-12T21:42:22.946Z,48.67
2018-12-12T21:44:50.536Z,50.00
2018-12-12T21:47:18.114Z,49.50
2018-12-12T21:49:45.943Z,39.00
2018-12-12T21:52:14.308Z,36.70
2018-12-12T21:54:41.843Z,40.10
2018-12-12T21:57:09.890Z,47.63
2018-12-12T21:59:37.690Z,47.33
2018-12-12T22:02:07.835Z,190.00
2018-12-12T22:04:37.426Z,105.30
2018-12-12T22:07:05.290Z,55.57
2018-12-12T22:09:33.190Z,71.77
2018-12-12T22:12:01.131Z,58.43
2018-12-12T22:14:28.890Z,109.40
2018-12-12T22:16:57.571Z,67.40
2018-12-12T22:19:26.008Z,75.93
2018-12-12T22:21:54.047Z,76.17
2018-12-12T22:24:21.610Z,93.67
2018-12-12T22:26:49.757Z,98.23
2018-12-12T22:29:17.321Z,93.93
2018-12-12T22:31:44.874Z,92.10
2018-12-12T22:34:12.485Z,90.97
2018-12-12T22:36:40.032Z,89.07
2018-12-12T22:39:07.772Z,76.67
2018-12-12T22:41:35.351Z,88.60
2018-12-12T22:44:04.284Z,85.03
2018-12-12T22:46:32.044Z,97.80
2018-12-12T22:48:59.630Z,109.40
2018-12-12T22:51:27.424Z,92.03
2018-12-12T22:53:54.969Z,65.73
2018-12-12T22:56:22.590Z,62.90
2018-12-12T22:58:50.340Z,99.17
2018-12-12T23:01:27.153Z,71.83
2018-12-12T23:03:54.833Z,66.37
2018-12-12T23:06:22.379Z,52.37
2018-12-12T23:08:49.952Z,48.70
2018-12-12T23:11:17.749Z,44.73
2018-12-12T23:13:45.294Z,41.93
2018-12-12T23:16:13.739Z,42.63
2018-12-12T23:18:41.355Z,49.23
2018-12-12T23:21:08.900Z,51.90
2018-12-12T23:23:37.005Z,43.77
2018-12-12T23:26:04.561Z,42.40
2018-12-12T23:28:32.103Z,43.93
2018-12-12T23:30:59.986Z,44.43
2018-12-12T23:33:27.853Z,47.33
2018-12-12T23:35:55.403Z,51.80
2018-12-12T23:38:22.995Z,52.87
2018-12-12T23:40:50.536Z,49.10
2018-12-12T23:43:18.098Z,43.13
2018-12-12T23:45:45.666Z,50.17
2018-12-12T23:48:13.201Z,47.03
2018-12-12T23:50:41.140Z,47.13
2018-12-12T23:53:08.933Z,52.17
2018-12-12T23:55:36.465Z,46.33
2018-12-12T23:58:04.005Z,47.93
